sensor_id;sensor_type;location;lat;lon;timestamp;temperature;humidity
21271;DHT22;10795;50.796;3.860;2023-08-06T00:00:27;15.50;99.90
21271;DHT22;10795;50.796;3.860;2023-08-06T00:02:53;15.50;99.90
21271;DHT22;10795;50.796;3.860;2023-08-06T00:05:18;15.60;99.90
21271;DHT22;10795;50.796;3.860;2023-08-06T00:07:50;15.70;99.90
21271;DHT22;10795;50.796;3.860;2023-08-06T00:10:16;15.80;99.90
21271;DHT22;10795;50.796;3.860;2023-08-06T00:12:43;15.80;99.90
21271;DHT22;10795;50.796;3.860;2023-08-06T00:15:10;15.80;99.90
21271;DHT22;10795;50.796;3.860;2023-08-06T00:17:36;15.80;99.90
21271;DHT22;10795;50.796;3.860;2023-08-06T00:20:03;15.80;99.90
21271;DHT22;10795;50.796;3.860;2023-08-06T00:22:33;15.90;99.90
21271;DHT22;10795;50.796;3.860;2023-08-06T00:24:59;15.90;99.90
21271;DHT22;10795;50.796;3.860;2023-08-06T00:27:25;15.80;99.90
21271;DHT22;10795;50.796;3.860;2023-08-06T00:29:51;15.90;99.90
21271;DHT22;10795;50.796;3.860;2023-08-06T00:32:18;16.00;99.90
21271;DHT22;10795;50.796;3.860;2023-08-06T00:34:44;15.90;99.90
21271;DHT22;10795;50.796;3.860;2023-08-06T00:37:09;15.70;99.90
21271;DHT22;10795;50.796;3.860;2023-08-06T00:39:35;15.60;99.90
21271;DHT22;10795;50.796;3.860;2023-08-06T00:42:01;15.60;99.90
21271;DHT22;10795;50.796;3.860;2023-08-06T00:44:27;15.60;99.90
21271;DHT22;10795;50.796;3.860;2023-08-06T00:46:53;15.70;99.90
21271;DHT22;10795;50.796;3.860;2023-08-06T00:49:19;15.70;99.90
21271;DHT22;10795;50.796;3.860;2023-08-06T00:51:45;15.80;99.90
21271;DHT22;10795;50.796;3.860;2023-08-06T00:54:11;15.80;99.90
21271;DHT22;10795;50.796;3.860;2023-08-06T00:56:37;15.80;99.90
21271;DHT22;10795;50.796;3.860;2023-08-06T00:59:04;15.80;99.90
21271;DHT22;10795;50.796;3.860;2023-08-06T01:01:30;15.80;99.90
21271;DHT22;10795;50.796;3.860;2023-08-06T01:03:56;15.70;99.90
21271;DHT22;10795;50.796;3.860;2023-08-06T01:06:52;15.70;99.90
21271;DHT22;10795;50.796;3.860;2023-08-06T01:12:47;15.70;99.90
21271;DHT22;10795;50.796;3.860;2023-08-06T01:15:23;15.80;99.90
21271;DHT22;10795;50.796;3.860;2023-08-06T01:17:50;15.80;99.90
21271;DHT22;10795;50.796;3.860;2023-08-06T01:20:16;15.70;99.90
21271;DHT22;10795;50.796;3.860;2023-08-06T01:22:42;15.50;99.90
21271;DHT22;10795;50.796;3.860;2023-08-06T01:25:08;15.50;99.90
21271;DHT22;10795;50.796;3.860;2023-08-06T01:27:48;15.60;99.90
21271;DHT22;10795;50.796;3.860;2023-08-06T01:30:22;15.60;99.90
21271;DHT22;10795;50.796;3.860;2023-08-06T01:32:54;15.50;99.90
21271;DHT22;10795;50.796;3.860;2023-08-06T01:35:21;15.50;99.90
21271;DHT22;10795;50.796;3.860;2023-08-06T01:37:48;15.40;99.90
21271;DHT22;10795;50.796;3.860;2023-08-06T01:40:14;15.40;99.90
21271;DHT22;10795;50.796;3.860;2023-08-06T01:42:40;15.40;99.90
21271;DHT22;10795;50.796;3.860;2023-08-06T01:45:08;15.30;99.90
21271;DHT22;10795;50.796;3.860;2023-08-06T01:47:34;15.30;99.90
21271;DHT22;10795;50.796;3.860;2023-08-06T01:50:00;15.20;99.90
21271;DHT22;10795;50.796;3.860;2023-08-06T01:52:26;15.20;99.90
21271;DHT22;10795;50.796;3.860;2023-08-06T01:54:52;15.20;99.90
21271;DHT22;10795;50.796;3.860;2023-08-06T01:57:18;15.10;99.90
21271;DHT22;10795;50.796;3.860;2023-08-06T01:59:44;15.30;99.90
21271;DHT22;10795;50.796;3.860;2023-08-06T02:02:10;15.40;99.90
21271;DHT22;10795;50.796;3.860;2023-08-06T02:04:35;15.30;99.90
21271;DHT22;10795;50.796;3.860;2023-08-06T02:07:01;15.20;99.90
21271;DHT22;10795;50.796;3.860;2023-08-06T02:09:27;15.20;99.90
21271;DHT22;10795;50.796;3.860;2023-08-06T02:11:53;15.10;99.90
21271;DHT22;10795;50.796;3.860;2023-08-06T02:14:18;15.00;99.90
21271;DHT22;10795;50.796;3.860;2023-08-06T02:16:44;15.00;99.90
21271;DHT22;10795;50.796;3.860;2023-08-06T02:19:10;15.10;99.90
21271;DHT22;10795;50.796;3.860;2023-08-06T02:21:36;15.30;99.90
21271;DHT22;10795;50.796;3.860;2023-08-06T02:24:02;15.20;99.90
21271;DHT22;10795;50.796;3.860;2023-08-06T02:26:29;15.30;99.90
21271;DHT22;10795;50.796;3.860;2023-08-06T02:28:55;15.30;99.90
21271;DHT22;10795;50.796;3.860;2023-08-06T02:31:21;15.50;99.90
21271;DHT22;10795;50.796;3.860;2023-08-06T02:33:46;15.50;99.90
21271;DHT22;10795;50.796;3.860;2023-08-06T02:36:12;15.40;99.90
21271;DHT22;10795;50.796;3.860;2023-08-06T02:38:38;15.40;99.90
21271;DHT22;10795;50.796;3.860;2023-08-06T02:41:04;15.50;99.90
21271;DHT22;10795;50.796;3.860;2023-08-06T02:43:30;15.60;99.90
21271;DHT22;10795;50.796;3.860;2023-08-06T02:46:00;15.50;99.90
21271;DHT22;10795;50.796;3.860;2023-08-06T02:48:26;15.30;99.90
21271;DHT22;10795;50.796;3.860;2023-08-06T02:50:52;15.30;99.90
21271;DHT22;10795;50.796;3.860;2023-08-06T02:53:18;15.40;99.90
21271;DHT22;10795;50.796;3.860;2023-08-06T02:55:47;15.60;99.90
21271;DHT22;10795;50.796;3.860;2023-08-06T02:58:15;15.50;99.90
21271;DHT22;10795;50.796;3.860;2023-08-06T03:00:59;15.40;99.90
21271;DHT22;10795;50.796;3.860;2023-08-06T03:03:24;15.30;99.90
21271;DHT22;10795;50.796;3.860;2023-08-06T03:05:55;15.40;99.90
21271;DHT22;10795;50.796;3.860;2023-08-06T03:08:37;15.40;99.90
21271;DHT22;10795;50.796;3.860;2023-08-06T03:11:02;15.40;99.90
21271;DHT22;10795;50.796;3.860;2023-08-06T03:13:28;15.20;99.90
21271;DHT22;10795;50.796;3.860;2023-08-06T03:15:58;15.20;99.90
21271;DHT22;10795;50.796;3.860;2023-08-06T03:18:26;15.20;99.90
21271;DHT22;10795;50.796;3.860;2023-08-06T03:20:52;15.00;99.90
21271;DHT22;10795;50.796;3.860;2023-08-06T03:23:18;15.00;99.90
21271;DHT22;10795;50.796;3.860;2023-08-06T03:25:44;14.80;99.90
21271;DHT22;10795;50.796;3.860;2023-08-06T03:28:12;14.90;99.90
21271;DHT22;10795;50.796;3.860;2023-08-06T03:30:38;15.00;99.90
21271;DHT22;10795;50.796;3.860;2023-08-06T03:33:05;15.00;99.90
21271;DHT22;10795;50.796;3.860;2023-08-06T03:35:31;15.00;99.90
21271;DHT22;10795;50.796;3.860;2023-08-06T03:37:57;14.90;99.90
21271;DHT22;10795;50.796;3.860;2023-08-06T03:40:23;14.90;99.90
21271;DHT22;10795;50.796;3.860;2023-08-06T03:42:49;14.90;99.90
21271;DHT22;10795;50.796;3.860;2023-08-06T03:45:15;14.90;99.90
21271;DHT22;10795;50.796;3.860;2023-08-06T03:47:42;15.10;99.90
21271;DHT22;10795;50.796;3.860;2023-08-06T03:50:08;15.00;99.90
21271;DHT22;10795;50.796;3.860;2023-08-06T03:52:34;15.00;99.90
21271;DHT22;10795;50.796;3.860;2023-08-06T03:55:00;14.90;99.90
21271;DHT22;10795;50.796;3.860;2023-08-06T03:57:26;15.00;99.90
21271;DHT22;10795;50.796;3.860;2023-08-06T03:59:52;15.00;99.90
21271;DHT22;10795;50.796;3.860;2023-08-06T04:02:17;15.10;99.90
21271;DHT22;10795;50.796;3.860;2023-08-06T04:04:43;15.10;99.90
21271;DHT22;10795;50.796;3.860;2023-08-06T04:07:09;15.00;99.90
21271;DHT22;10795;50.796;3.860;2023-08-06T04:09:54;15.00;99.90
21271;DHT22;10795;50.796;3.860;2023-08-06T04:12:20;15.00;99.90
21271;DHT22;10795;50.796;3.860;2023-08-06T04:14:46;15.00;99.90
21271;DHT22;10795;50.796;3.860;2023-08-06T04:17:11;15.10;99.90
21271;DHT22;10795;50.796;3.860;2023-08-06T04:19:37;15.10;99.90
21271;DHT22;10795;50.796;3.860;2023-08-06T04:22:03;15.10;99.90
21271;DHT22;10795;50.796;3.860;2023-08-06T04:24:29;15.00;99.90
21271;DHT22;10795;50.796;3.860;2023-08-06T04:26:56;15.00;99.90
21271;DHT22;10795;50.796;3.860;2023-08-06T04:29:21;15.10;99.90
21271;DHT22;10795;50.796;3.860;2023-08-06T04:31:47;15.10;99.90
21271;DHT22;10795;50.796;3.860;2023-08-06T04:34:13;15.10;99.90
21271;DHT22;10795;50.796;3.860;2023-08-06T04:36:39;15.10;99.90
21271;DHT22;10795;50.796;3.860;2023-08-06T04:39:07;15.10;99.90
21271;DHT22;10795;50.796;3.860;2023-08-06T04:41:34;15.10;99.90
21271;DHT22;10795;50.796;3.860;2023-08-06T04:43:59;15.20;99.90
21271;DHT22;10795;50.796;3.860;2023-08-06T04:46:25;15.10;99.90
21271;DHT22;10795;50.796;3.860;2023-08-06T04:48:51;15.20;99.90
21271;DHT22;10795;50.796;3.860;2023-08-06T04:51:17;15.20;99.90
21271;DHT22;10795;50.796;3.860;2023-08-06T04:53:43;15.30;99.90
21271;DHT22;10795;50.796;3.860;2023-08-06T04:56:08;15.20;99.90
21271;DHT22;10795;50.796;3.860;2023-08-06T04:58:34;15.30;99.90
21271;DHT22;10795;50.796;3.860;2023-08-06T05:01:00;15.30;99.90
21271;DHT22;10795;50.796;3.860;2023-08-06T05:03:26;15.30;99.90
21271;DHT22;10795;50.796;3.860;2023-08-06T05:05:51;15.20;99.90
21271;DHT22;10795;50.796;3.860;2023-08-06T05:08:17;15.20;99.90
21271;DHT22;10795;50.796;3.860;2023-08-06T05:10:46;15.40;99.90
21271;DHT22;10795;50.796;3.860;2023-08-06T05:13:12;15.20;99.90
21271;DHT22;10795;50.796;3.860;2023-08-06T05:15:39;15.00;99.90
21271;DHT22;10795;50.796;3.860;2023-08-06T05:18:08;15.00;99.90
21271;DHT22;10795;50.796;3.860;2023-08-06T05:20:41;15.10;99.90
21271;DHT22;10795;50.796;3.860;2023-08-06T05:23:07;15.00;99.90
21271;DHT22;10795;50.796;3.860;2023-08-06T05:25:39;15.00;99.90
21271;DHT22;10795;50.796;3.860;2023-08-06T05:28:05;15.00;99.90
21271;DHT22;10795;50.796;3.860;2023-08-06T05:30:31;15.00;99.90
21271;DHT22;10795;50.796;3.860;2023-08-06T05:32:57;14.80;99.90
21271;DHT22;10795;50.796;3.860;2023-08-06T05:35:23;14.90;99.90
21271;DHT22;10795;50.796;3.860;2023-08-06T05:37:50;15.00;99.90
21271;DHT22;10795;50.796;3.860;2023-08-06T05:40:15;15.00;99.90
21271;DHT22;10795;50.796;3.860;2023-08-06T05:42:41;14.90;99.90
21271;DHT22;10795;50.796;3.860;2023-08-06T05:45:08;15.20;99.90
21271;DHT22;10795;50.796;3.860;2023-08-06T05:47:34;15.20;99.90
21271;DHT22;10795;50.796;3.860;2023-08-06T05:49:59;15.00;99.90
21271;DHT22;10795;50.796;3.860;2023-08-06T05:52:25;15.00;99.90
21271;DHT22;10795;50.796;3.860;2023-08-06T05:54:51;15.00;99.90
21271;DHT22;10795;50.796;3.860;2023-08-06T05:57:17;15.00;99.90
21271;DHT22;10795;50.796;3.860;2023-08-06T05:59:44;15.00;99.90
21271;DHT22;10795;50.796;3.860;2023-08-06T06:02:09;15.10;99.90
21271;DHT22;10795;50.796;3.860;2023-08-06T06:04:37;15.00;99.90
21271;DHT22;10795;50.796;3.860;2023-08-06T06:07:03;15.10;99.90
21271;DHT22;10795;50.796;3.860;2023-08-06T06:09:28;15.20;99.90
21271;DHT22;10795;50.796;3.860;2023-08-06T06:11:54;15.30;99.90
21271;DHT22;10795;50.796;3.860;2023-08-06T06:14:20;15.10;99.90
21271;DHT22;10795;50.796;3.860;2023-08-06T06:16:46;15.10;99.90
21271;DHT22;10795;50.796;3.860;2023-08-06T06:19:12;15.00;99.90
21271;DHT22;10795;50.796;3.860;2023-08-06T06:21:39;15.00;99.90
21271;DHT22;10795;50.796;3.860;2023-08-06T06:24:05;15.10;99.90
21271;DHT22;10795;50.796;3.860;2023-08-06T06:26:32;15.00;99.90
21271;DHT22;10795;50.796;3.860;2023-08-06T06:28:58;15.00;99.90
21271;DHT22;10795;50.796;3.860;2023-08-06T06:31:23;15.00;99.90
21271;DHT22;10795;50.796;3.860;2023-08-06T06:33:49;15.20;99.90
21271;DHT22;10795;50.796;3.860;2023-08-06T06:36:15;15.20;99.90
21271;DHT22;10795;50.796;3.860;2023-08-06T06:38:41;15.20;99.90
21271;DHT22;10795;50.796;3.860;2023-08-06T06:41:06;15.00;99.90
21271;DHT22;10795;50.796;3.860;2023-08-06T06:43:32;15.20;99.90
21271;DHT22;10795;50.796;3.860;2023-08-06T06:45:59;15.20;99.90
21271;DHT22;10795;50.796;3.860;2023-08-06T06:48:31;15.40;99.90
21271;DHT22;10795;50.796;3.860;2023-08-06T06:50:57;15.30;99.90
21271;DHT22;10795;50.796;3.860;2023-08-06T06:53:23;15.20;99.90
21271;DHT22;10795;50.796;3.860;2023-08-06T06:55:54;15.40;99.90
21271;DHT22;10795;50.796;3.860;2023-08-06T06:58:20;15.30;99.90
21271;DHT22;10795;50.796;3.860;2023-08-06T07:00:49;15.30;99.90
21271;DHT22;10795;50.796;3.860;2023-08-06T07:03:15;15.40;99.90
21271;DHT22;10795;50.796;3.860;2023-08-06T07:05:42;15.50;99.90
21271;DHT22;10795;50.796;3.860;2023-08-06T07:08:08;15.50;99.90
21271;DHT22;10795;50.796;3.860;2023-08-06T07:10:34;15.30;99.90
21271;DHT22;10795;50.796;3.860;2023-08-06T07:13:00;15.20;99.90
21271;DHT22;10795;50.796;3.860;2023-08-06T07:15:25;15.30;99.90
21271;DHT22;10795;50.796;3.860;2023-08-06T07:17:51;15.50;99.90
21271;DHT22;10795;50.796;3.860;2023-08-06T07:20:17;15.40;99.90
21271;DHT22;10795;50.796;3.860;2023-08-06T07:22:44;15.40;99.90
21271;DHT22;10795;50.796;3.860;2023-08-06T07:25:10;15.60;99.90
21271;DHT22;10795;50.796;3.860;2023-08-06T07:27:35;15.70;99.90
21271;DHT22;10795;50.796;3.860;2023-08-06T07:30:01;15.70;99.90
21271;DHT22;10795;50.796;3.860;2023-08-06T07:32:27;15.80;99.90
21271;DHT22;10795;50.796;3.860;2023-08-06T07:34:53;16.00;99.90
21271;DHT22;10795;50.796;3.860;2023-08-06T07:37:25;16.20;99.90
21271;DHT22;10795;50.796;3.860;2023-08-06T07:39:50;16.30;99.90
21271;DHT22;10795;50.796;3.860;2023-08-06T07:42:16;16.50;99.90
21271;DHT22;10795;50.796;3.860;2023-08-06T07:44:42;16.60;99.90
21271;DHT22;10795;50.796;3.860;2023-08-06T07:47:08;16.80;99.90
21271;DHT22;10795;50.796;3.860;2023-08-06T07:49:33;16.40;99.90
21271;DHT22;10795;50.796;3.860;2023-08-06T07:51:59;16.40;99.90
21271;DHT22;10795;50.796;3.860;2023-08-06T07:54:25;16.60;99.90
21271;DHT22;10795;50.796;3.860;2023-08-06T07:56:50;16.80;99.90
21271;DHT22;10795;50.796;3.860;2023-08-06T07:59:16;16.60;99.90
21271;DHT22;10795;50.796;3.860;2023-08-06T08:01:42;16.40;99.90
21271;DHT22;10795;50.796;3.860;2023-08-06T08:04:08;16.40;99.90
21271;DHT22;10795;50.796;3.860;2023-08-06T08:06:34;16.30;99.90
21271;DHT22;10795;50.796;3.860;2023-08-06T08:08:59;16.50;99.90
21271;DHT22;10795;50.796;3.860;2023-08-06T08:11:26;16.30;99.90
21271;DHT22;10795;50.796;3.860;2023-08-06T08:13:51;16.40;99.90
21271;DHT22;10795;50.796;3.860;2023-08-06T08:16:17;16.60;99.90
21271;DHT22;10795;50.796;3.860;2023-08-06T08:18:43;16.30;99.90
21271;DHT22;10795;50.796;3.860;2023-08-06T08:21:09;16.50;99.90
21271;DHT22;10795;50.796;3.860;2023-08-06T08:23:34;16.70;99.90
21271;DHT22;10795;50.796;3.860;2023-08-06T08:26:01;16.80;99.90
21271;DHT22;10795;50.796;3.860;2023-08-06T08:28:27;17.00;99.90
21271;DHT22;10795;50.796;3.860;2023-08-06T08:30:53;16.70;99.90
21271;DHT22;10795;50.796;3.860;2023-08-06T08:33:20;16.70;99.90
21271;DHT22;10795;50.796;3.860;2023-08-06T08:35:46;16.70;99.90
21271;DHT22;10795;50.796;3.860;2023-08-06T08:38:12;16.80;99.90
21271;DHT22;10795;50.796;3.860;2023-08-06T08:40:41;16.30;99.90
21271;DHT22;10795;50.796;3.860;2023-08-06T08:43:11;16.00;99.90
21271;DHT22;10795;50.796;3.860;2023-08-06T08:45:39;15.90;99.90
21271;DHT22;10795;50.796;3.860;2023-08-06T08:48:09;15.90;99.90
21271;DHT22;10795;50.796;3.860;2023-08-06T08:50:36;16.30;99.90
21271;DHT22;10795;50.796;3.860;2023-08-06T08:53:02;16.30;99.90
21271;DHT22;10795;50.796;3.860;2023-08-06T08:55:28;16.40;99.90
21271;DHT22;10795;50.796;3.860;2023-08-06T08:57:54;16.60;99.90
21271;DHT22;10795;50.796;3.860;2023-08-06T09:00:20;16.70;99.90
21271;DHT22;10795;50.796;3.860;2023-08-06T09:02:46;16.40;99.90
21271;DHT22;10795;50.796;3.860;2023-08-06T09:05:13;16.20;99.90
21271;DHT22;10795;50.796;3.860;2023-08-06T09:07:42;16.30;99.90
21271;DHT22;10795;50.796;3.860;2023-08-06T09:10:11;16.50;99.90
21271;DHT22;10795;50.796;3.860;2023-08-06T09:12:39;16.70;99.90
21271;DHT22;10795;50.796;3.860;2023-08-06T09:15:06;16.30;99.90
21271;DHT22;10795;50.796;3.860;2023-08-06T09:17:32;16.60;99.90
21271;DHT22;10795;50.796;3.860;2023-08-06T09:19:57;16.70;99.90
21271;DHT22;10795;50.796;3.860;2023-08-06T09:22:23;16.70;99.90
21271;DHT22;10795;50.796;3.860;2023-08-06T09:24:49;16.40;99.90
21271;DHT22;10795;50.796;3.860;2023-08-06T09:27:15;16.40;99.90
21271;DHT22;10795;50.796;3.860;2023-08-06T09:29:45;16.60;99.90
21271;DHT22;10795;50.796;3.860;2023-08-06T09:32:12;16.50;99.90
21271;DHT22;10795;50.796;3.860;2023-08-06T09:34:46;16.60;99.90
21271;DHT22;10795;50.796;3.860;2023-08-06T09:37:11;16.60;99.90
21271;DHT22;10795;50.796;3.860;2023-08-06T09:39:39;16.40;99.90
21271;DHT22;10795;50.796;3.860;2023-08-06T09:42:06;16.70;99.90
21271;DHT22;10795;50.796;3.860;2023-08-06T09:44:33;16.60;99.90
21271;DHT22;10795;50.796;3.860;2023-08-06T09:47:03;16.60;99.90
21271;DHT22;10795;50.796;3.860;2023-08-06T09:51:59;16.90;99.90
21271;DHT22;10795;50.796;3.860;2023-08-06T09:54:26;16.60;99.90
21271;DHT22;10795;50.796;3.860;2023-08-06T09:56:56;16.50;99.90
21271;DHT22;10795;50.796;3.860;2023-08-06T09:59:23;16.50;99.90
21271;DHT22;10795;50.796;3.860;2023-08-06T10:01:49;16.20;99.90
21271;DHT22;10795;50.796;3.860;2023-08-06T10:04:15;15.80;99.90
21271;DHT22;10795;50.796;3.860;2023-08-06T10:06:47;16.10;99.90
21271;DHT22;10795;50.796;3.860;2023-08-06T10:09:13;16.30;99.90
21271;DHT22;10795;50.796;3.860;2023-08-06T10:11:39;16.70;99.90
21271;DHT22;10795;50.796;3.860;2023-08-06T10:14:23;16.70;99.90
21271;DHT22;10795;50.796;3.860;2023-08-06T10:16:50;16.20;99.90
21271;DHT22;10795;50.796;3.860;2023-08-06T10:19:17;16.10;99.90
21271;DHT22;10795;50.796;3.860;2023-08-06T10:22:15;16.00;99.90
21271;DHT22;10795;50.796;3.860;2023-08-06T10:24:50;16.30;99.90
21271;DHT22;10795;50.796;3.860;2023-08-06T10:30:28;16.90;99.90
21271;DHT22;10795;50.796;3.860;2023-08-06T10:33:04;16.80;99.90
21271;DHT22;10795;50.796;3.860;2023-08-06T10:38:00;17.20;99.90
21271;DHT22;10795;50.796;3.860;2023-08-06T10:40:28;17.50;99.90
21271;DHT22;10795;50.796;3.860;2023-08-06T10:42:59;17.20;99.90
21271;DHT22;10795;50.796;3.860;2023-08-06T10:45:25;17.40;99.90
21271;DHT22;10795;50.796;3.860;2023-08-06T10:47:54;17.40;99.90
21271;DHT22;10795;50.796;3.860;2023-08-06T10:50:22;17.50;99.90
21271;DHT22;10795;50.796;3.860;2023-08-06T10:52:48;18.00;99.90
21271;DHT22;10795;50.796;3.860;2023-08-06T10:55:22;18.20;99.90
21271;DHT22;10795;50.796;3.860;2023-08-06T10:57:48;18.10;99.90
21271;DHT22;10795;50.796;3.860;2023-08-06T11:00:14;18.10;99.90
21271;DHT22;10795;50.796;3.860;2023-08-06T11:02:40;18.10;99.90
21271;DHT22;10795;50.796;3.860;2023-08-06T11:05:07;17.90;99.90
21271;DHT22;10795;50.796;3.860;2023-08-06T11:07:34;17.50;99.90
21271;DHT22;10795;50.796;3.860;2023-08-06T11:10:07;17.80;99.90
21271;DHT22;10795;50.796;3.860;2023-08-06T11:12:33;17.90;99.90
21271;DHT22;10795;50.796;3.860;2023-08-06T11:15:00;17.90;99.90
21271;DHT22;10795;50.796;3.860;2023-08-06T11:17:31;17.40;99.90
21271;DHT22;10795;50.796;3.860;2023-08-06T11:20:02;17.00;99.90
21271;DHT22;10795;50.796;3.860;2023-08-06T11:22:28;17.10;99.90
21271;DHT22;10795;50.796;3.860;2023-08-06T11:24:55;16.80;99.90
21271;DHT22;10795;50.796;3.860;2023-08-06T11:27:20;16.80;99.90
21271;DHT22;10795;50.796;3.860;2023-08-06T11:29:47;17.10;99.90
21271;DHT22;10795;50.796;3.860;2023-08-06T11:32:13;16.90;99.90
21271;DHT22;10795;50.796;3.860;2023-08-06T11:34:39;17.50;99.90
21271;DHT22;10795;50.796;3.860;2023-08-06T11:37:06;17.40;99.90
21271;DHT22;10795;50.796;3.860;2023-08-06T11:39:36;17.30;99.90
21271;DHT22;10795;50.796;3.860;2023-08-06T11:42:06;16.90;99.90
21271;DHT22;10795;50.796;3.860;2023-08-06T11:44:34;17.30;99.90
21271;DHT22;10795;50.796;3.860;2023-08-06T11:47:01;17.60;99.90
21271;DHT22;10795;50.796;3.860;2023-08-06T11:49:47;17.80;99.90
21271;DHT22;10795;50.796;3.860;2023-08-06T11:52:19;17.70;99.90
21271;DHT22;10795;50.796;3.860;2023-08-06T11:54:47;17.50;99.90
21271;DHT22;10795;50.796;3.860;2023-08-06T11:57:13;17.20;99.90
21271;DHT22;10795;50.796;3.860;2023-08-06T11:59:39;17.20;99.90
21271;DHT22;10795;50.796;3.860;2023-08-06T12:02:08;17.30;99.90
21271;DHT22;10795;50.796;3.860;2023-08-06T12:04:59;17.60;99.90
21271;DHT22;10795;50.796;3.860;2023-08-06T12:07:28;17.60;99.90
21271;DHT22;10795;50.796;3.860;2023-08-06T12:09:53;17.70;99.90
21271;DHT22;10795;50.796;3.860;2023-08-06T12:12:19;17.50;99.90
21271;DHT22;10795;50.796;3.860;2023-08-06T12:14:45;17.10;99.90
21271;DHT22;10795;50.796;3.860;2023-08-06T12:17:11;17.00;99.90
21271;DHT22;10795;50.796;3.860;2023-08-06T12:19:36;16.80;99.90
21271;DHT22;10795;50.796;3.860;2023-08-06T12:22:02;16.90;99.90
21271;DHT22;10795;50.796;3.860;2023-08-06T12:24:29;17.00;99.90
21271;DHT22;10795;50.796;3.860;2023-08-06T12:26:57;17.10;99.90
21271;DHT22;10795;50.796;3.860;2023-08-06T12:29:25;17.70;99.90
21271;DHT22;10795;50.796;3.860;2023-08-06T12:31:50;17.60;99.90
21271;DHT22;10795;50.796;3.860;2023-08-06T12:34:16;17.40;99.90
21271;DHT22;10795;50.796;3.860;2023-08-06T12:36:42;17.70;99.90
21271;DHT22;10795;50.796;3.860;2023-08-06T12:39:08;17.50;99.90
21271;DHT22;10795;50.796;3.860;2023-08-06T12:41:34;17.80;99.90
21271;DHT22;10795;50.796;3.860;2023-08-06T12:43:59;17.50;99.90
21271;DHT22;10795;50.796;3.860;2023-08-06T12:46:25;17.60;99.90
21271;DHT22;10795;50.796;3.860;2023-08-06T12:48:51;17.60;99.90
21271;DHT22;10795;50.796;3.860;2023-08-06T12:51:16;17.60;99.90
21271;DHT22;10795;50.796;3.860;2023-08-06T12:53:42;17.40;99.90
21271;DHT22;10795;50.796;3.860;2023-08-06T12:56:08;17.60;99.90
21271;DHT22;10795;50.796;3.860;2023-08-06T12:58:34;17.80;99.90
21271;DHT22;10795;50.796;3.860;2023-08-06T13:00:59;17.90;99.90
21271;DHT22;10795;50.796;3.860;2023-08-06T13:03:25;18.30;99.90
21271;DHT22;10795;50.796;3.860;2023-08-06T13:05:51;18.20;99.90
21271;DHT22;10795;50.796;3.860;2023-08-06T13:08:17;18.20;99.90
21271;DHT22;10795;50.796;3.860;2023-08-06T13:10:43;18.00;99.90
21271;DHT22;10795;50.796;3.860;2023-08-06T13:13:09;18.00;99.90
21271;DHT22;10795;50.796;3.860;2023-08-06T13:15:36;17.80;99.90
21271;DHT22;10795;50.796;3.860;2023-08-06T13:18:01;17.90;99.90
21271;DHT22;10795;50.796;3.860;2023-08-06T13:20:30;18.00;99.90
21271;DHT22;10795;50.796;3.860;2023-08-06T13:22:55;17.70;99.90
21271;DHT22;10795;50.796;3.860;2023-08-06T13:25:21;17.80;99.90
21271;DHT22;10795;50.796;3.860;2023-08-06T13:27:48;17.50;99.90
21271;DHT22;10795;50.796;3.860;2023-08-06T13:30:14;17.40;99.90
21271;DHT22;10795;50.796;3.860;2023-08-06T13:32:39;17.60;99.90
21271;DHT22;10795;50.796;3.860;2023-08-06T13:35:05;17.40;99.90
21271;DHT22;10795;50.796;3.860;2023-08-06T13:37:31;17.70;99.90
21271;DHT22;10795;50.796;3.860;2023-08-06T13:39:57;17.70;99.90
21271;DHT22;10795;50.796;3.860;2023-08-06T13:42:23;17.90;99.90
21271;DHT22;10795;50.796;3.860;2023-08-06T13:44:48;17.80;99.90
21271;DHT22;10795;50.796;3.860;2023-08-06T13:47:14;17.70;99.90
21271;DHT22;10795;50.796;3.860;2023-08-06T13:49:40;17.40;99.90
21271;DHT22;10795;50.796;3.860;2023-08-06T13:52:06;17.50;99.90
21271;DHT22;10795;50.796;3.860;2023-08-06T13:54:32;17.60;99.90
21271;DHT22;10795;50.796;3.860;2023-08-06T13:56:58;17.90;99.90
21271;DHT22;10795;50.796;3.860;2023-08-06T13:59:23;18.00;99.90
21271;DHT22;10795;50.796;3.860;2023-08-06T14:01:50;17.80;99.90
21271;DHT22;10795;50.796;3.860;2023-08-06T14:04:16;17.60;99.90
21271;DHT22;10795;50.796;3.860;2023-08-06T14:06:41;17.70;99.90
21271;DHT22;10795;50.796;3.860;2023-08-06T14:09:07;17.50;99.90
21271;DHT22;10795;50.796;3.860;2023-08-06T14:11:33;17.30;99.90
21271;DHT22;10795;50.796;3.860;2023-08-06T14:13:59;17.60;99.90
21271;DHT22;10795;50.796;3.860;2023-08-06T14:16:25;17.50;99.90
21271;DHT22;10795;50.796;3.860;2023-08-06T14:18:51;17.00;99.90
21271;DHT22;10795;50.796;3.860;2023-08-06T14:21:17;17.10;99.90
21271;DHT22;10795;50.796;3.860;2023-08-06T14:23:43;17.20;99.90
21271;DHT22;10795;50.796;3.860;2023-08-06T14:26:08;16.80;99.90
21271;DHT22;10795;50.796;3.860;2023-08-06T14:28:36;16.80;99.90
21271;DHT22;10795;50.796;3.860;2023-08-06T14:31:02;16.80;99.90
21271;DHT22;10795;50.796;3.860;2023-08-06T14:33:28;16.90;99.90
21271;DHT22;10795;50.796;3.860;2023-08-06T14:35:53;16.90;99.90
21271;DHT22;10795;50.796;3.860;2023-08-06T14:38:19;17.00;99.90
21271;DHT22;10795;50.796;3.860;2023-08-06T14:40:45;16.90;99.90
21271;DHT22;10795;50.796;3.860;2023-08-06T14:43:11;17.00;99.90
21271;DHT22;10795;50.796;3.860;2023-08-06T14:45:40;17.10;99.90
21271;DHT22;10795;50.796;3.860;2023-08-06T14:48:06;17.00;99.90
21271;DHT22;10795;50.796;3.860;2023-08-06T14:50:32;17.20;99.90
21271;DHT22;10795;50.796;3.860;2023-08-06T14:52:58;17.00;99.90
21271;DHT22;10795;50.796;3.860;2023-08-06T14:55:28;17.20;99.90
21271;DHT22;10795;50.796;3.860;2023-08-06T14:57:54;17.00;99.90
21271;DHT22;10795;50.796;3.860;2023-08-06T15:00:20;17.10;99.90
21271;DHT22;10795;50.796;3.860;2023-08-06T15:02:46;17.50;99.90
21271;DHT22;10795;50.796;3.860;2023-08-06T15:05:12;17.90;99.90
21271;DHT22;10795;50.796;3.860;2023-08-06T15:07:38;17.60;99.90
21271;DHT22;10795;50.796;3.860;2023-08-06T15:10:05;17.60;99.90
21271;DHT22;10795;50.796;3.860;2023-08-06T15:12:31;17.00;99.90
21271;DHT22;10795;50.796;3.860;2023-08-06T15:15:00;17.10;99.90
21271;DHT22;10795;50.796;3.860;2023-08-06T15:17:27;17.10;99.90
21271;DHT22;10795;50.796;3.860;2023-08-06T15:19:56;16.70;99.90
21271;DHT22;10795;50.796;3.860;2023-08-06T15:22:23;16.60;99.90
21271;DHT22;10795;50.796;3.860;2023-08-06T15:24:49;16.50;99.90
21271;DHT22;10795;50.796;3.860;2023-08-06T15:27:15;16.90;99.90
21271;DHT22;10795;50.796;3.860;2023-08-06T15:29:41;17.00;99.90
21271;DHT22;10795;50.796;3.860;2023-08-06T15:32:07;17.00;99.90
21271;DHT22;10795;50.796;3.860;2023-08-06T15:34:34;17.30;99.90
21271;DHT22;10795;50.796;3.860;2023-08-06T15:37:00;17.30;99.90
21271;DHT22;10795;50.796;3.860;2023-08-06T15:39:25;17.40;99.90